Time;durP1;ratioP1;P1;durP2;ratioP2;P2;SDS_P1;SDS_P2;PMS_P1;PMS_P2;Temp;Humidity;BMP_temperature;BMP_pressure;BME280_temperature;BME280_humidity;BME280_pressure;Samples;Min_cycle;Max_cycle;Signal;HPM_P1;HPM_P2
2021/07/25 09:26:54;;;;;;;14.07;11.82;;;;;;;;;;4998982;28;20485;-50
2021/07/25 09:29:21;;;;;;;13.02;11.60;;;;;;;;;;5025090;28;20034;-49
2021/07/25 09:31:47;;;;;;;13.10;11.35;;;;;;;;;;5017343;28;20512;-52
2021/07/25 09:34:32;;;;;;;11.55;10.40;;;;;;;;;;5013021;28;20211;-55
2021/07/25 09:37:17;;;;;;;12.02;10.77;;;33.80;64.10;;;;;;5013794;28;20487;-54
2021/07/25 09:39:56;;;;;;;12.30;10.82;;;33.90;64.40;;;;;;5024571;28;20069;-49
2021/07/25 09:42:30;;;;;;;12.13;11.02;;;34.00;63.60;;;;;;5025454;28;20119;-47
2021/07/25 09:44:59;;;;;;;12.30;11.20;;;34.00;62.80;;;;;;5013480;28;20536;-48
2021/07/25 09:47:35;;;;;;;12.05;10.85;;;34.20;61.90;;;;;;5014066;28;20030;-52
2021/07/25 09:50:04;;;;;;;12.63;10.63;;;;;;;;;;5014129;28;20056;-49
2021/07/25 09:52:33;;;;;;;11.98;10.77;;;34.30;62.30;;;;;;5013976;28;20030;-51
2021/07/25 09:55:00;;;;;;;12.60;11.30;;;34.70;63.50;;;;;;5028166;28;20491;-52
2021/07/25 09:57:27;;;;;;;13.75;10.88;;;34.40;63.20;;;;;;5014050;28;20105;-52
2021/07/25 09:59:54;;;;;;;11.68;10.55;;;34.30;62.00;;;;;;5013923;28;20034;-53
2021/07/25 10:02:35;;;;;;;12.30;11.07;;;34.50;60.80;;;;;;4995002;28;20050;-52
2021/07/25 10:05:14;;;;;;;10.95;9.95;;;;;;;;;;5013753;28;20389;-49
2021/07/25 10:07:44;;;;;;;11.13;10.05;;;35.20;59.90;;;;;;5013800;28;20045;-53
2021/07/25 10:10:13;;;;;;;12.23;11.05;;;35.10;62.20;;;;;;5013592;28;20361;-45
2021/07/25 10:12:41;;;;;;;11.27;10.18;;;34.90;61.60;;;;;;5013598;28;20504;-55
2021/07/25 10:15:09;;;;;;;11.45;10.35;;;;;;;;;;5011654;28;20118;-51
2021/07/25 10:17:36;;;;;;;11.38;9.95;;;;;;;;;;5013577;28;20033;-49
2021/07/25 10:20:04;;;;;;;11.82;10.38;;;35.30;59.40;;;;;;5013692;28;20037;-52
2021/07/25 10:22:31;;;;;;;12.40;10.68;;;;;;;;;;5011633;28;20104;-49
2021/07/25 10:24:58;;;;;;;11.52;10.32;;;;;;;;;;5027853;28;20085;-55
2021/07/25 10:27:25;;;;;;;12.50;11.30;;;36.20;92.90;;;;;;5013558;28;20061;-55
2021/07/25 10:29:53;;;;;;;11.82;10.40;;;36.20;59.20;;;;;;5013718;28;20109;-50
2021/07/25 10:32:20;;;;;;;11.13;10.02;;;36.20;67.80;;;;;;5013215;28;20050;-52
2021/07/25 10:34:49;;;;;;;12.88;10.88;;;35.70;64.60;;;;;;5013371;28;20407;-48
2021/07/25 10:37:16;;;;;;;10.95;9.85;;;35.00;70.40;;;;;;5013650;28;20026;-54
2021/07/25 10:39:48;;;;;;;14.10;10.57;;;35.60;71.20;;;;;;5013367;28;20022;-49
2021/07/25 10:42:19;;;;;;;14.18;10.63;;;36.20;74.60;;;;;;5013569;28;20521;-53
2021/07/25 10:44:45;;;;;;;10.50;9.45;;;;;;;;;;5017949;28;20030;-54
2021/07/25 10:47:17;;;;;;;10.65;9.65;;;37.00;57.00;;;;;;5025725;28;20368;-53
2021/07/25 10:49:43;;;;;;;10.85;9.75;;;36.70;55.50;;;;;;5024949;28;20028;-54
2021/07/25 10:52:09;;;;;;;11.73;9.57;;;36.80;55.90;;;;;;5016866;28;20364;-57
2021/07/25 10:54:45;;;;;;;12.32;10.30;;;37.30;57.20;;;;;;5016883;28;20109;-52
2021/07/25 10:57:11;;;;;;;11.50;10.35;;;37.20;55.80;;;;;;5017201;28;20030;-54
2021/07/25 10:59:37;;;;;;;11.32;9.82;;;36.90;56.50;;;;;;5026071;28;20033;-49
2021/07/25 11:02:03;;;;;;;12.43;10.68;;;;;;;;;;5036499;28;20508;-51
2021/07/25 11:05:05;;;;;;;11.70;10.52;;;;;;;;;;5035412;28;20373;-52
2021/07/25 11:07:31;;;;;;;;;;;;;;;;;;5012556;28;20057;-51
2021/07/25 11:09:58;;;;;;;12.48;10.88;;;37.70;56.30;;;;;;5012509;28;20510;-54
2021/07/25 11:12:25;;;;;;;11.30;10.18;;;37.90;56.60;;;;;;4966233;28;20057;-50
2021/07/25 11:15:01;;;;;;;11.68;10.50;;;37.30;57.00;;;;;;5012658;28;20042;-49
2021/07/25 11:17:54;;;;;;;14.05;11.02;;;36.10;56.70;;;;;;5013257;28;20546;-49
2021/07/25 11:20:39;;;;;;;12.85;10.38;;;36.10;58.00;;;;;;5010385;28;20045;-47
2021/07/25 11:23:21;;;;;;;13.02;10.95;;;35.80;58.30;;;;;;5010094;28;20038;-51
2021/07/25 11:25:48;;;;;;;11.80;10.18;;;36.20;58.80;;;;;;5009236;28;20036;-51
2021/07/25 11:28:39;;;;;;;11.18;10.07;;;36.60;58.10;;;;;;5011185;28;20070;-51
2021/07/25 11:31:05;;;;;;;14.23;10.52;;;36.90;56.70;;;;;;4989171;28;20056;-53
2021/07/25 11:33:45;;;;;;;11.45;10.20;;;37.20;57.60;;;;;;5009287;28;20038;-52
2021/07/25 11:36:16;;;;;;;12.02;10.82;;;;;;;;;;5011762;28;21225;-47
2021/07/25 11:38:42;;;;;;;12.43;11.10;;;37.70;55.60;;;;;;5011767;28;20026;-53
2021/07/25 11:41:10;;;;;;;11.95;10.75;;;37.60;56.80;;;;;;5013237;28;20026;-51
2021/07/25 11:44:00;;;;;;;11.68;10.48;;;37.50;56.30;;;;;;5019431;28;20037;-50
2021/07/25 11:46:28;;;;;;;13.10;10.05;;;37.50;56.10;;;;;;5031898;28;20076;-51
2021/07/25 11:49:12;;;;;;;11.68;10.23;;;;;;;;;;5014253;28;20421;-54
2021/07/25 11:51:41;;;;;;;11.55;10.30;;;;;;;;;;5034279;28;20481;-51
2021/07/25 11:54:07;;;;;;;11.57;9.55;;;38.00;56.50;;;;;;5017679;28;20176;-47
2021/07/25 11:56:34;;;;;;;11.90;10.27;;;38.10;58.10;;;;;;5037323;28;20669;-49
2021/07/25 11:59:05;;;;;;;12.65;11.07;;;37.80;57.10;;;;;;5049986;28;20068;-53
2021/07/25 12:01:31;;;;;;;13.18;10.32;;;37.70;57.40;;;;;;5044078;28;20135;-48
2021/07/25 12:03:58;;;;;;;12.07;10.10;;;38.10;57.00;;;;;;5031460;28;20494;-51
2021/07/25 12:06:24;;;;;;;13.18;10.05;;;38.30;56.10;;;;;;5053217;28;20075;-51
2021/07/25 12:09:02;;;;;;;11.73;9.43;;;38.40;57.00;;;;;;5042696;28;20060;-50
2021/07/25 12:11:28;;;;;;;11.30;10.20;;;38.00;55.60;;;;;;5037002;28;20377;-50
2021/07/25 12:13:54;;;;;;;11.93;10.32;;;37.80;57.00;;;;;;5057087;28;20044;-48
2021/07/25 12:16:20;;;;;;;11.07;9.93;;;38.00;57.00;;;;;;5034705;28;20113;-48
2021/07/25 12:18:46;;;;;;;11.88;10.70;;;38.00;56.30;;;;;;5037216;28;20040;-53
2021/07/25 12:21:32;;;;;;;11.88;10.48;;;37.90;56.30;;;;;;5038250;28;20091;-46
2021/07/25 12:24:00;;;;;;;11.40;10.13;;;37.80;56.30;;;;;;5053689;28;20048;-49
2021/07/25 12:26:42;;;;;;;13.05;10.15;;;37.70;58.90;;;;;;5041261;28;20053;-50
2021/07/25 12:29:43;;;;;;;11.52;10.25;;;37.80;58.00;;;;;;5034717;28;20037;-51
2021/07/25 12:32:18;;;;;;;15.05;10.95;;;38.00;56.70;;;;;;5024828;28;20046;-52
2021/07/25 12:34:44;;;;;;;12.98;10.27;;;38.00;56.40;;;;;;5043589;28;20043;-53
2021/07/25 12:37:26;;;;;;;11.40;10.35;;;38.20;56.50;;;;;;5033295;28;20018;-51
2021/07/25 12:39:52;;;;;;;;;;;;;;;;;;5028547;28;20558;-51
2021/07/25 12:43:00;;;;;;;11.38;10.18;;;38.60;55.00;;;;;;5038120;28;19952;-53
2021/07/25 12:45:32;;;;;;;13.52;10.77;;;38.40;56.00;;;;;;5013299;28;20386;-50
2021/07/25 12:48:25;;;;;;;13.32;11.02;;;38.40;56.20;;;;;;5016727;28;20045;-50
2021/07/25 13:11:01;;;;;;;12.57;11.20;;;38.00;55.90;;;;;;5142799;27;20420;-50
2021/07/25 13:13:28;;;;;;;11.27;10.18;;;37.90;55.20;;;;;;5129494;28;20035;-49
2021/07/25 13:15:54;;;;;;;10.57;9.68;;;37.80;55.80;;;;;;5127300;27;20081;-50
2021/07/25 13:18:22;;;;;;;12.93;10.68;;;37.60;55.40;;;;;;5110211;28;20040;-49
2021/07/25 13:20:47;;;;;;;11.15;10.05;;;37.90;59.50;;;;;;5129830;27;20051;-52
2021/07/25 13:23:14;;;;;;;11.68;10.48;;;37.40;60.50;;;;;;5127300;28;20054;-49
2021/07/25 13:25:40;;;;;;;11.10;9.98;;;37.00;61.40;;;;;;5123392;27;20038;-48
2021/07/25 13:28:06;;;;;;;12.57;9.93;;;37.20;63.90;;;;;;5123871;27;20055;-49
2021/07/25 13:30:33;;;;;;;13.10;10.15;;;37.30;63.60;;;;;;5103966;28;20492;-50
2021/07/25 13:32:58;;;;;;;10.50;9.60;;;36.90;62.90;;;;;;5108516;28;20043;-52
2021/07/25 13:35:24;;;;;;;9.70;8.80;;;37.20;64.10;;;;;;5119064;27;20033;-49
2021/07/25 13:37:50;;;;;;;10.05;8.95;;;37.50;64.50;;;;;;5122554;27;20043;-49
2021/07/25 13:40:16;;;;;;;10.57;9.13;;;37.10;63.80;;;;;;5121139;28;20039;-51
2021/07/25 13:42:42;;;;;;;10.88;9.68;;;36.90;64.50;;;;;;5124063;28;20031;-47
2021/07/25 13:45:11;;;;;;;8.55;7.60;;;36.90;65.60;;;;;;5123959;28;20032;-48
2021/07/25 13:47:38;;;;;;;10.18;9.18;;;36.60;65.00;;;;;;5056726;28;20381;-47
2021/07/25 13:50:11;;;;;;;12.90;9.25;;;37.30;65.40;;;;;;5097624;28;20031;-49
2021/07/25 13:52:37;;;;;;;12.10;9.73;;;37.40;66.10;;;;;;5102133;28;20110;-55
2021/07/25 13:55:04;;;;;;;10.77;9.65;;;37.40;65.40;;;;;;5117293;28;20470;-52
2021/07/25 13:57:32;;;;;;;12.50;9.57;;;37.60;65.00;;;;;;5115268;28;20044;-51
2021/07/25 13:59:59;;;;;;;10.93;9.82;;;37.30;66.20;;;;;;5119229;28;20027;-50
2021/07/25 14:02:24;;;;;;;12.50;9.57;;;37.30;66.80;;;;;;5107246;28;20069;-51
2021/07/25 14:04:53;;;;;;;11.07;9.98;;;37.20;67.00;;;;;;5113516;27;20051;-48
2021/07/25 14:07:19;;;;;;;10.20;9.27;;;37.00;66.80;;;;;;5123571;28;20054;-47
2021/07/25 14:09:46;;;;;;;11.05;10.00;;;36.90;67.00;;;;;;5122660;28;20066;-49
2021/07/25 14:12:12;;;;;;;10.95;9.88;;;36.80;68.10;;;;;;5095519;28;20371;-49
2021/07/25 14:14:38;;;;;;;11.23;10.10;;;36.60;69.50;;;;;;5116739;27;20046;-52
2021/07/25 14:17:04;;;;;;;10.98;9.88;;;36.40;70.00;;;;;;5089139;28;20040;-48
2021/07/25 14:19:33;;;;;;;13.30;10.23;;;36.30;69.20;;;;;;5094061;28;20550;-48
2021/07/25 14:21:59;;;;;;;14.00;11.02;;;36.40;70.00;;;;;;5096631;28;20040;-51
2021/07/25 14:24:25;;;;;;;10.95;9.95;;;36.50;70.40;;;;;;5114968;27;20028;-48
2021/07/25 14:26:51;;;;;;;19.15;10.77;;;36.50;70.00;;;;;;5078508;28;20062;-47
2021/07/25 14:29:17;;;;;;;12.27;9.48;;;36.60;70.50;;;;;;5094147;28;20051;-50
2021/07/25 14:31:43;;;;;;;11.93;10.55;;;36.40;69.20;;;;;;5114679;28;20031;-49
2021/07/25 14:34:09;;;;;;;11.13;9.98;;;36.50;69.60;;;;;;5110243;28;20047;-50
2021/07/25 14:36:35;;;;;;;12.23;9.77;;;36.40;70.10;;;;;;5109698;27;20086;-49
2021/07/25 14:39:01;;;;;;;11.57;10.20;;;36.20;70.90;;;;;;5111696;27;20250;-45
2021/07/25 14:41:26;;;;;;;16.13;10.55;;;36.00;71.90;;;;;;5082091;27;20039;-49
2021/07/25 14:43:52;;;;;;;14.95;12.70;;;35.70;80.50;;;;;;5094608;27;20046;-51
2021/07/25 14:46:18;;;;;;;12.85;11.10;;;35.50;76.50;;;;;;5036571;28;20040;-48
2021/07/25 14:48:46;;;;;;;14.13;11.55;;;35.30;77.70;;;;;;5052073;28;20048;-48
2021/07/25 14:51:14;;;;;;;13.02;11.30;;;35.10;80.80;;;;;;5071178;28;20044;-48
2021/07/25 14:53:43;;;;;;;13.32;11.82;;;35.00;79.00;;;;;;5027940;28;20053;-50
2021/07/25 14:56:10;;;;;;;13.38;11.35;;;34.90;80.70;;;;;;5028030;28;20043;-46
2021/07/25 14:58:37;;;;;;;12.38;11.27;;;34.90;78.50;;;;;;5028120;28;20056;-47
2021/07/25 15:01:17;;;;;;;16.20;12.13;;;34.80;81.70;;;;;;5030345;28;20124;-46
2021/07/25 15:03:43;;;;;;;15.27;12.05;;;34.90;87.30;;;;;;5014639;28;20132;-49
2021/07/25 15:06:15;;;;;;;11.82;10.57;;;35.10;87.30;;;;;;5031144;28;20072;-46
2021/07/25 15:08:41;;;;;;;13.63;12.10;;;35.20;87.10;;;;;;5030145;28;20046;-49
2021/07/25 15:11:11;;;;;;;14.13;10.35;;;35.40;86.10;;;;;;5030804;28;20068;-48
2021/07/25 15:13:37;;;;;;;12.52;11.23;;;35.40;82.10;;;;;;5031556;28;20037;-50
2021/07/25 15:16:03;;;;;;;14.77;11.35;;;35.80;80.90;;;;;;5031804;28;20476;-46
2021/07/25 15:18:29;;;;;;;12.80;11.10;;;35.90;83.40;;;;;;5021342;28;20078;-47
2021/07/25 15:20:55;;;;;;;13.07;10.32;;;35.80;83.40;;;;;;5021295;28;20441;-46
2021/07/25 15:23:21;;;;;;;13.30;11.90;;;35.60;82.60;;;;;;5070456;28;20443;-48
2021/07/25 15:25:47;;;;;;;14.73;11.63;;;35.60;83.20;;;;;;5109256;28;20039;-46
2021/07/25 15:28:12;;;;;;;13.05;11.10;;;35.30;83.20;;;;;;5112631;28;20054;-46
2021/07/25 15:30:38;;;;;;;11.38;10.25;;;35.00;76.20;;;;;;5113608;28;20043;-47
2021/07/25 15:33:05;;;;;;;14.32;12.32;;;34.90;90.00;;;;;;5092453;28;20425;-48
2021/07/25 15:35:34;;;;;;;15.57;11.50;;;35.10;85.00;;;;;;5113605;28;20027;-49
2021/07/25 15:38:00;;;;;;;11.65;10.48;;;35.30;85.30;;;;;;5109637;28;20024;-46
2021/07/25 15:40:26;;;;;;;12.15;11.02;;;35.00;85.20;;;;;;5096254;28;20070;-45
2021/07/25 15:42:52;;;;;;;13.25;11.00;;;35.10;85.90;;;;;;5107303;28;20161;-46
2021/07/25 15:45:18;;;;;;;12.00;10.70;;;35.10;85.90;;;;;;5101875;28;20134;-45
2021/07/25 15:47:44;;;;;;;12.43;10.65;;;35.00;86.00;;;;;;5122531;27;20131;-46
2021/07/25 15:50:12;;;;;;;13.43;11.50;;;34.90;88.70;;;;;;5100089;28;20066;-46
2021/07/25 15:52:41;;;;;;;14.38;11.50;;;34.70;79.00;;;;;;5111560;28;20039;-49
2021/07/25 15:55:07;;;;;;;13.00;10.48;;;34.50;79.00;;;;;;5101487;28;20027;-47
2021/07/25 15:57:36;;;;;;;15.85;11.52;;;34.30;80.50;;;;;;5111166;28;20051;-44
2021/07/25 16:00:04;;;;;;;14.02;11.38;;;34.40;84.40;;;;;;5111084;28;20591;-46
2021/07/25 16:02:29;;;;;;;11.23;9.98;;;34.40;83.90;;;;;;5107040;28;20092;-47
2021/07/25 16:04:55;;;;;;;13.68;10.60;;;33.80;81.20;;;;;;5110423;28;20134;-48
2021/07/25 16:07:21;;;;;;;18.50;12.68;;;33.60;75.80;;;;;;5074764;28;20040;-50
2021/07/25 16:09:46;;;;;;;15.20;11.18;;;33.50;79.10;;;;;;5109599;28;20136;-45
2021/07/25 16:12:13;;;;;;;21.30;11.57;;;33.40;78.60;;;;;;5110734;28;20190;-47
2021/07/25 16:14:39;;;;;;;16.73;11.45;;;33.10;75.90;;;;;;5082446;28;20039;-46
2021/07/25 16:17:06;;;;;;;11.95;9.70;;;33.00;75.70;;;;;;5110381;28;20043;-46
2021/07/25 16:19:33;;;;;;;12.63;10.93;;;32.80;76.90;;;;;;5074490;28;20082;-44
2021/07/25 16:22:00;;;;;;;13.55;10.90;;;32.70;83.90;;;;;;5071377;28;20501;-45
2021/07/25 16:24:26;;;;;;;13.23;10.88;;;;;;;;;;5110547;28;20070;-45
2021/07/25 16:26:52;;;;;;;15.30;11.63;;;32.50;95.20;;;;;;5076537;28;20049;-45
2021/07/25 16:29:17;;;;;;;14.15;10.07;;;32.60;91.40;;;;;;5072926;28;20405;-45
2021/07/25 16:31:43;;;;;;;16.45;11.18;;;32.60;90.80;;;;;;5106382;28;20454;-45
2021/07/25 16:34:09;;;;;;;10.50;9.13;;;32.40;88.40;;;;;;5116814;27;20036;-45
2021/07/25 16:36:35;;;;;;;16.02;11.27;;;32.40;85.30;;;;;;5092844;28;20054;-45
2021/07/25 16:39:00;;;;;;;14.80;10.57;;;32.50;84.40;;;;;;5112193;28;20046;-46
2021/07/25 16:41:26;;;;;;;12.65;10.77;;;32.30;82.80;;;;;;5113195;28;20059;-45
2021/07/25 16:43:52;;;;;;;11.40;9.73;;;32.40;82.60;;;;;;5109825;28;20039;-45
2021/07/25 16:46:19;;;;;;;9.55;8.57;;;32.40;82.00;;;;;;5112843;28;20462;-45
2021/07/25 16:48:46;;;;;;;15.52;10.73;;;32.10;85.60;;;;;;5113856;28;20024;-44
2021/07/25 16:51:12;;;;;;;13.50;9.70;;;32.30;85.50;;;;;;5114206;28;20040;-45
2021/07/25 16:53:38;;;;;;;14.68;9.93;;;32.00;92.00;;;;;;5113572;28;20122;-44
2021/07/25 16:56:04;;;;;;;11.98;10.18;;;32.00;91.30;;;;;;5091024;28;20123;-44
2021/07/25 16:58:30;;;;;;;12.18;10.07;;;32.00;84.90;;;;;;5040974;28;20048;-44
2021/07/25 17:00:57;;;;;;;15.13;10.23;;;31.80;83.50;;;;;;5073742;28;20052;-44
2021/07/25 17:03:22;;;;;;;14.02;9.55;;;31.80;85.40;;;;;;5091165;28;20490;-44
2021/07/25 17:05:50;;;;;;;13.75;9.77;;;31.70;82.60;;;;;;5091126;28;20044;-44
2021/07/25 17:08:15;;;;;;;11.13;9.48;;;31.50;78.90;;;;;;5091057;28;20131;-45
2021/07/25 17:10:41;;;;;;;12.65;9.95;;;31.50;78.60;;;;;;5024218;28;20151;-45
2021/07/25 17:13:08;;;;;;;12.20;9.30;;;31.40;78.90;;;;;;5074117;28;20417;-44
2021/07/25 17:15:38;;;;;;;12.15;10.23;;;31.30;78.30;;;;;;5090754;28;20044;-45
2021/07/25 17:18:05;;;;;;;11.57;9.40;;;31.20;79.10;;;;;;5091065;28;20032;-43
2021/07/25 17:20:30;;;;;;;10.52;9.43;;;31.10;79.90;;;;;;5091160;28;20044;-43
2021/07/25 17:22:56;;;;;;;11.20;9.73;;;31.20;79.50;;;;;;5091044;28;20143;-45
2021/07/25 17:25:22;;;;;;;154.85;28.20;;;30.90;79.80;;;;;;5091086;28;20126;-44
2021/07/25 17:27:48;;;;;;;14.02;10.07;;;30.90;80.60;;;;;;5109602;28;20081;-45
2021/07/25 17:30:14;;;;;;;19.48;9.85;;;30.60;72.30;;;;;;5113655;28;20023;-43
2021/07/25 17:32:40;;;;;;;12.57;9.52;;;;;;;;;;5112563;28;20418;-43
2021/07/25 17:35:07;;;;;;;11.10;9.57;;;;;;;;;;5113662;28;20024;-46
2021/07/25 17:37:33;;;;;;;11.85;10.65;;;;;;;;;;5111429;28;20043;-44
2021/07/25 17:39:59;;;;;;;12.45;10.40;;;;;;;;;;5113419;28;20040;-44
2021/07/25 17:42:25;;;;;;;12.68;10.32;;;30.40;71.90;;;;;;5094890;28;20039;-44
2021/07/25 17:44:51;;;;;;;16.83;11.18;;;30.30;72.90;;;;;;5113112;28;20047;-43
2021/07/25 17:47:17;;;;;;;21.67;12.15;;;30.20;73.00;;;;;;5073636;28;20063;-45
2021/07/25 17:49:43;;;;;;;11.88;10.40;;;30.20;73.20;;;;;;5074229;28;20119;-44
2021/07/25 17:52:08;;;;;;;15.02;10.20;;;30.10;73.30;;;;;;5014571;28;20560;-43
2021/07/25 17:54:34;;;;;;;11.65;9.43;;;30.10;73.10;;;;;;5014431;28;20038;-43
2021/07/25 17:57:00;;;;;;;21.77;10.23;;;30.10;72.90;;;;;;5014690;28;20486;-44
2021/07/25 17:59:26;;;;;;;14.50;10.25;;;30.10;73.00;;;;;;4981728;28;20054;-43
2021/07/25 18:01:51;;;;;;;15.52;10.52;;;30.00;73.40;;;;;;5014643;28;20515;-45
2021/07/25 18:04:17;;;;;;;18.17;11.32;;;30.00;73.20;;;;;;5014532;28;20065;-45
2021/07/25 18:06:43;;;;;;;12.60;11.00;;;29.90;73.30;;;;;;5014056;28;20092;-45
2021/07/25 18:09:09;;;;;;;12.15;10.07;;;29.80;73.50;;;;;;5013636;28;20639;-44
2021/07/25 18:11:35;;;;;;;11.55;9.73;;;29.80;73.50;;;;;;5014082;28;20076;-44
2021/07/25 18:14:02;;;;;;;18.45;10.63;;;29.70;74.40;;;;;;5013920;28;20056;-44
2021/07/25 18:16:27;;;;;;;12.52;10.10;;;29.70;73.50;;;;;;4964490;28;20461;-45
2021/07/25 18:18:54;;;;;;;10.63;9.52;;;29.60;73.60;;;;;;5059237;28;20037;-45
2021/07/25 18:21:21;;;;;;;13.73;10.00;;;29.60;73.50;;;;;;5073784;28;20078;-43
2021/07/25 18:23:52;;;;;;;12.13;10.77;;;29.60;73.40;;;;;;5073502;28;20036;-44
2021/07/25 18:26:18;;;;;;;;;;;29.60;73.50;;;;;;5074248;28;20495;-44
2021/07/25 18:28:46;;;;;;;11.50;10.13;;;30.40;74.00;;;;;;5080088;28;19915;-45
2021/07/25 18:31:12;;;;;;;11.35;10.23;;;29.60;73.60;;;;;;5116727;28;20028;-45
2021/07/25 18:33:39;;;;;;;11.40;10.02;;;29.60;73.60;;;;;;5116457;28;20050;-45
2021/07/25 18:36:06;;;;;;;15.35;10.07;;;29.50;74.00;;;;;;5116648;28;20492;-45
2021/07/25 18:38:31;;;;;;;11.18;9.93;;;29.50;74.20;;;;;;5115436;28;20470;-44
2021/07/25 18:41:00;;;;;;;11.95;9.68;;;;;;;;;;5113508;28;20043;-45
2021/07/25 18:43:28;;;;;;;10.73;9.63;;;29.20;73.60;;;;;;5114028;28;20378;-44
2021/07/25 18:45:54;;;;;;;12.60;9.95;;;29.20;74.00;;;;;;5112069;28;20051;-47
2021/07/25 18:48:20;;;;;;;11.05;9.90;;;28.90;74.50;;;;;;5112176;28;20039;-47
2021/07/25 18:50:49;;;;;;;12.05;10.10;;;;;;;;;;5095186;28;20054;-46
2021/07/25 18:53:14;;;;;;;12.05;10.77;;;28.60;75.00;;;;;;5113729;28;20031;-46
2021/07/25 18:55:40;;;;;;;11.85;10.55;;;28.70;75.50;;;;;;5113628;28;20133;-46
2021/07/25 18:58:06;;;;;;;11.75;10.48;;;28.80;75.70;;;;;;5112854;28;20461;-46
2021/07/25 19:00:31;;;;;;;13.63;11.25;;;28.80;75.60;;;;;;5113259;28;20183;-43
2021/07/25 19:02:57;;;;;;;12.48;11.18;;;28.90;75.70;;;;;;5113667;28;20425;-44
2021/07/25 19:05:23;;;;;;;12.60;11.05;;;28.90;75.70;;;;;;5079631;28;20419;-44
2021/07/25 19:07:49;;;;;;;11.10;10.02;;;29.00;75.30;;;;;;5113419;28;20036;-44
2021/07/25 19:10:14;;;;;;;12.00;10.35;;;29.10;75.20;;;;;;5113139;28;20086;-48
2021/07/25 19:12:40;;;;;;;20.27;12.25;;;29.00;74.80;;;;;;5115238;28;20462;-41
2021/07/25 19:15:06;;;;;;;18.20;13.35;;;28.80;75.30;;;;;;5115339;28;20028;-47
2021/07/25 19:17:32;;;;;;;14.48;13.07;;;28.70;75.80;;;;;;5131826;27;20078;-44
2021/07/25 19:19:58;;;;;;;12.57;10.98;;;28.70;75.90;;;;;;5111918;28;20079;-47
2021/07/25 19:22:24;;;;;;;12.63;11.32;;;28.60;76.00;;;;;;5112303;28;20031;-43
2021/07/25 19:24:49;;;;;;;12.90;10.57;;;28.40;75.90;;;;;;5114408;28;20024;-47
2021/07/25 19:27:15;;;;;;;11.10;9.85;;;28.30;75.40;;;;;;5108945;28;20050;-45
2021/07/25 19:29:41;;;;;;;10.68;9.63;;;28.20;75.20;;;;;;5109410;28;20470;-45
2021/07/25 19:32:07;;;;;;;12.10;10.55;;;28.30;75.20;;;;;;5109748;28;20391;-46
2021/07/25 19:34:34;;;;;;;14.25;10.48;;;28.30;75.50;;;;;;5077793;28;20478;-50
2021/07/25 19:37:00;;;;;;;11.85;10.65;;;28.40;75.20;;;;;;5023930;28;20047;-48
2021/07/25 19:39:26;;;;;;;12.38;11.07;;;28.50;76.30;;;;;;5113457;28;20394;-48
2021/07/25 19:41:52;;;;;;;14.60;12.02;;;28.50;75.00;;;;;;5113475;28;20152;-48
2021/07/25 19:44:18;;;;;;;23.75;11.45;;;28.50;75.50;;;;;;5113073;28;20551;-47
2021/07/25 19:46:44;;;;;;;12.70;11.05;;;28.50;75.30;;;;;;5113426;28;20038;-48
2021/07/25 19:49:11;;;;;;;13.70;10.10;;;28.50;75.20;;;;;;5077340;28;20386;-47
2021/07/25 19:51:39;;;;;;;16.63;10.63;;;28.50;75.90;;;;;;5077147;28;20093;-47
2021/07/25 19:54:05;;;;;;;11.73;10.20;;;28.40;75.30;;;;;;5113177;28;20163;-48
2021/07/25 19:56:31;;;;;;;11.30;10.18;;;28.40;75.60;;;;;;5113155;28;20106;-47
2021/07/25 19:58:57;;;;;;;12.45;11.25;;;28.40;75.40;;;;;;5094131;28;20184;-47
2021/07/25 20:01:23;;;;;;;13.88;10.30;;;28.20;75.30;;;;;;5094515;28;20095;-47
2021/07/25 20:03:49;;;;;;;11.75;10.55;;;28.10;75.60;;;;;;5044443;28;20463;-47
2021/07/25 20:06:15;;;;;;;15.27;11.30;;;28.00;76.20;;;;;;5113424;28;20035;-47
2021/07/25 20:08:43;;;;;;;14.48;10.25;;;27.90;76.10;;;;;;5058713;28;20047;-48
2021/07/25 20:11:09;;;;;;;12.38;10.25;;;28.00;75.40;;;;;;5113108;28;20048;-47
2021/07/25 20:13:36;;;;;;;12.25;9.98;;;27.90;75.40;;;;;;5113304;28;20397;-49
2021/07/25 20:16:02;;;;;;;12.35;10.60;;;;;;;;;;5113164;28;20063;-47
2021/07/25 20:18:30;;;;;;;12.85;10.60;;;27.70;97.00;;;;;;5113334;28;20031;-47
2021/07/25 20:20:58;;;;;;;11.48;9.98;;;27.70;80.20;;;;;;5113236;28;20039;-47
2021/07/25 20:23:24;;;;;;;14.35;10.45;;;;;;;;;;5113286;28;20042;-48
2021/07/25 20:25:50;;;;;;;12.00;10.77;;;26.50;98.50;;;;;;5113352;28;20030;-47
2021/07/25 20:28:16;;;;;;;12.63;9.90;;;;;;;;;;5076968;28;20032;-48
2021/07/25 20:30:42;;;;;;;11.88;10.27;;;27.30;96.30;;;;;;5111967;28;20031;-47
2021/07/25 20:33:10;;;;;;;14.50;11.35;;;27.40;96.70;;;;;;5113089;28;20114;-48
2021/07/25 20:35:39;;;;;;;14.90;10.95;;;27.30;86.40;;;;;;5112970;28;20040;-47
2021/07/25 20:38:06;;;;;;;13.15;10.75;;;27.30;84.60;;;;;;5105862;28;20035;-48
2021/07/25 20:40:36;;;;;;;12.10;10.52;;;27.40;83.90;;;;;;5086242;28;20063;-47
2021/07/25 20:43:05;;;;;;;13.43;10.30;;;27.20;82.90;;;;;;5101505;28;20074;-47
2021/07/25 20:45:33;;;;;;;13.30;9.93;;;27.00;83.30;;;;;;5101969;28;20027;-47
2021/07/25 20:48:00;;;;;;;12.00;10.02;;;26.80;95.50;;;;;;5122915;27;20424;-47
2021/07/25 20:50:28;;;;;;;12.48;9.63;;;;;;;;;;5110426;28;20096;-47
2021/07/25 20:52:54;;;;;;;16.40;10.20;;;26.30;78.50;;;;;;5092054;28;20042;-47
2021/07/25 20:55:21;;;;;;;15.15;10.77;;;26.40;79.50;;;;;;5112635;28;20049;-48
2021/07/25 20:57:49;;;;;;;12.30;10.57;;;26.50;78.70;;;;;;5091409;28;20108;-49
2021/07/25 21:00:15;;;;;;;13.23;10.65;;;26.50;78.20;;;;;;5104433;28;20086;-48
2021/07/25 21:02:41;;;;;;;12.60;10.20;;;26.50;78.20;;;;;;5107033;28;20080;-47
2021/07/25 21:05:07;;;;;;;11.65;10.48;;;26.50;78.10;;;;;;5107757;28;20443;-47
2021/07/25 21:07:33;;;;;;;12.10;9.88;;;26.50;78.20;;;;;;5107767;28;20039;-45
2021/07/25 21:09:59;;;;;;;11.07;9.88;;;26.50;77.90;;;;;;5107507;28;20036;-45
2021/07/25 21:12:30;;;;;;;12.48;10.70;;;26.40;78.60;;;;;;5110827;28;20532;-45
2021/07/25 21:14:56;;;;;;;12.43;10.25;;;26.40;78.80;;;;;;5110884;28;20489;-45
2021/07/25 21:17:22;;;;;;;12.68;10.07;;;26.40;78.30;;;;;;5110877;28;20086;-44
2021/07/25 21:19:48;;;;;;;11.60;10.40;;;26.40;79.20;;;;;;5107790;28;20040;-46
2021/07/25 21:22:16;;;;;;;13.63;10.23;;;26.30;79.30;;;;;;5112958;28;20084;-47
2021/07/25 21:24:42;;;;;;;11.15;10.00;;;26.20;78.60;;;;;;5110102;27;20803;-48
2021/07/25 21:27:08;;;;;;;13.73;11.15;;;26.20;78.90;;;;;;5095883;28;20023;-45
2021/07/25 21:29:34;;;;;;;11.27;10.13;;;26.10;79.30;;;;;;5114954;28;20390;-44
2021/07/25 21:32:02;;;;;;;12.05;10.80;;;26.00;80.10;;;;;;5096053;28;20539;-47
2021/07/25 21:34:28;;;;;;;10.50;9.40;;;26.00;79.70;;;;;;5097284;28;20043;-45
2021/07/25 21:36:57;;;;;;;11.57;10.48;;;25.90;80.10;;;;;;5109670;28;20031;-46
2021/07/25 21:39:22;;;;;;;12.88;11.27;;;25.80;80.30;;;;;;5113243;28;20493;-45
2021/07/25 21:41:52;;;;;;;13.77;10.73;;;25.70;81.00;;;;;;5098575;28;20039;-46
2021/07/25 21:44:20;;;;;;;12.70;11.18;;;25.90;80.30;;;;;;5113845;28;20051;-45
2021/07/25 21:46:49;;;;;;;12.20;9.80;;;26.10;80.10;;;;;;5112208;28;20039;-45
2021/07/25 21:49:15;;;;;;;12.05;10.82;;;26.10;79.60;;;;;;5111383;28;20020;-46
2021/07/25 21:51:41;;;;;;;12.50;11.20;;;26.10;79.30;;;;;;5112148;28;20426;-47
2021/07/25 21:54:07;;;;;;;13.05;10.43;;;26.00;79.90;;;;;;5113281;28;20022;-44
2021/07/25 21:56:40;;;;;;;12.40;10.70;;;25.90;79.60;;;;;;5111764;28;20043;-45
2021/07/25 21:59:09;;;;;;;13.07;10.82;;;26.00;79.40;;;;;;5111622;28;20391;-46
2021/07/25 22:01:48;;;;;;;12.70;10.70;;;25.70;79.50;;;;;;5109267;27;20102;-48
2021/07/25 22:04:28;;;;;;;16.63;11.02;;;25.60;80.00;;;;;;5112920;28;20042;-46
2021/07/25 22:06:55;;;;;;;14.48;11.07;;;25.50;80.20;;;;;;5110583;28;20074;-48
2021/07/25 22:09:27;;;;;;;13.18;10.75;;;25.50;80.40;;;;;;5129984;27;20111;-45
2021/07/25 22:11:52;;;;;;;;;;;25.60;80.30;;;;;;5064308;28;20058;-45
2021/07/25 22:14:20;;;;;;;12.95;10.40;;;25.50;80.50;;;;;;5113855;28;19907;-48
2021/07/25 22:16:46;;;;;;;12.73;11.38;;;25.40;81.10;;;;;;5114349;27;20391;-46
2021/07/25 22:19:15;;;;;;;13.95;11.45;;;25.40;80.90;;;;;;5114689;28;20039;-44
2021/07/25 22:21:41;;;;;;;12.52;11.02;;;25.30;81.00;;;;;;5116136;28;20028;-45
2021/07/25 22:24:07;;;;;;;14.70;10.98;;;25.30;81.40;;;;;;5115021;28;20422;-49
2021/07/25 22:26:35;;;;;;;12.52;10.52;;;25.20;82.20;;;;;;5105955;28;20034;-47
2021/07/25 22:29:01;;;;;;;16.95;11.40;;;25.20;81.50;;;;;;5126728;27;20482;-46
2021/07/25 22:31:27;;;;;;;12.45;10.25;;;25.10;81.60;;;;;;5096049;28;20039;-46